ADDS METAR Data INFO
IDs: Format: Raw Decoded Include TAF

Data at: 1946 UTC 18 Feb 2018

KCVW 181940Z AUTO 13009KT 1SM BR OVC003 19/19 A3012 RMK A01
KCVW 181920Z AUTO 12008KT 1SM BR OVC003 19/19 A3013 RMK A01
KCVW 181900Z AUTO 12007KT 1/2SM BR OVC003 19/19 A3014 RMK A01
KCVW 181840Z AUTO 13008KT 1/4SM FG OVC003 19/19 A3015 RMK A01
KCVW 181820Z AUTO 13009KT 1/4SM FG OVC003 19/19 A3016 RMK A01
KCVW 181800Z AUTO 12009KT 1SM BR OVC003 19/19 A3017 RMK A01
KCVW 181740Z AUTO 12009KT 1/2SM FG OVC003 19/19 A3017 RMK A01
KCVW 181720Z AUTO 12010KT M1/4SM FG OVC003 19/19 A3018 RMK A01
KCVW 181700Z AUTO 12008KT M1/4SM FG OVC003 19/19 A3018 RMK A01
KCVW 181640Z AUTO 11007KT M1/4SM FG OVC003 19/19 A3019 RMK A01
KCVW 181620Z AUTO 11009KT 1/4SM FG OVC003 19/19 A3019 RMK A01
KCVW 181600Z AUTO 10008KT 1/4SM FG OVC003 19/19 A3018 RMK A01
KCVW 181540Z AUTO 11008KT 1/4SM FG OVC003 19/19 A3018 RMK A01
KCVW 181520Z AUTO 10007KT 1/4SM FG OVC003 19/19 A3018 RMK A01
KCVW 181500Z AUTO 08006KT 1/4SM FG OVC003 19/19 A3018 RMK A01
KCVW 181440Z AUTO 08005KT 1/4SM FG OVC003 19/19 A3017 RMK A01
KCVW 181420Z AUTO 07006KT 1/4SM FG OVC003 18/18 A3017 RMK A01
KCVW 181400Z AUTO 08005KT 1/4SM FG OVC003 18/18 A3016 RMK A01
KCVW 181340Z AUTO 07005KT 1/4SM FG OVC003 18/18 A3015 RMK A01
KCVW 181320Z AUTO 06006KT 1/4SM FG OVC002 18/18 A3015 RMK A01
KCVW 181300Z AUTO 06005KT 1/2SM FG OVC002 18/18 A3015 RMK A01
KCVW 181240Z AUTO 07004KT 1/4SM FG OVC002 19/19 A3014 RMK A01
KCVW 181220Z AUTO 07005KT 1/4SM FG OVC002 19/19 A3014 RMK A01
KCVW 181200Z AUTO 07004KT 1/4SM FG OVC002 19/19 A3013 RMK A01
KCVW 181140Z AUTO 08004KT 1/4SM FG OVC002 18/18 A3013 RMK A01
KCVW 181120Z AUTO 06005KT 1/4SM FG OVC002 18/18 A3013 RMK A01
KCVW 181100Z AUTO 06005KT 1/2SM FG OVC002 18/18 A3013 RMK A01
KCVW 181040Z AUTO 06004KT 1/2SM FG OVC002 19/19 A3013 RMK A01
KCVW 181020Z AUTO 07005KT 1/4SM FG OVC002 19/19 A3013 RMK A01
KCVW 181000Z AUTO 05005KT 1/4SM FG OVC002 18/18 A3013 RMK A01
KCVW 180940Z AUTO 06005KT 1/4SM FG OVC002 18/18 A3013 RMK A01
KCVW 180920Z AUTO 04006KT 1/4SM FG OVC002 18/18 A3013 RMK A01
KCVW 180900Z AUTO 00000KT M1/4SM FG OVC002 18/18 A3013 RMK A01
KCVW 180840Z AUTO 09003KT M1/4SM FG OVC002 18/18 A3012 RMK A01
KCVW 180820Z AUTO 00000KT M1/4SM FG OVC002 18/18 A3013 RMK A01
KCVW 180800Z AUTO 00000KT M1/4SM FG OVC002 18/18 A3013 RMK A01
KCVW 180740Z AUTO 00000KT M1/4SM FG OVC002 18/18 A3014 RMK A01
KCVW 180720Z AUTO 00000KT M1/4SM FG OVC002 18/18 A3014 RMK A01
KCVW 180700Z AUTO 00000KT 1/4SM FG OVC002 18/18 A3013 RMK A01
KCVW 180640Z AUTO 00000KT M1/4SM FG OVC002 18/18 A3013 RMK A01
KCVW 180620Z AUTO 15003KT M1/4SM FG OVC002 19/19 A3013 RMK A01
KCVW 180600Z AUTO 16004KT M1/4SM FG OVC002 19/19 A3013 RMK A01
KCVW 180540Z AUTO 16003KT 1/4SM FG OVC002 19/19 A3013 RMK A01
KCVW 180520Z AUTO 00000KT 1/4SM FG OVC002 19/19 A3014 RMK A01
KCVW 180500Z AUTO 17004KT 1/4SM FG OVC002 19/19 A3014 RMK A01
KCVW 180440Z AUTO 16006KT 1/2SM BR OVC002 19/19 A3014 RMK A01
KCVW 180420Z AUTO 17007KT 3/4SM BR OVC002 19/19 A3015 RMK A01
KCVW 180400Z AUTO 17005KT 1/2SM FG OVC002 19/19 A3015 RMK A01
KCVW 180340Z AUTO 17005KT 1/2SM FG OVC002 19/19 A3016 RMK A01
KCVW 180320Z AUTO 17005KT M1/4SM FG OVC002 19/19 A3015 RMK A01
KCVW 180300Z AUTO 16005KT M1/4SM FG OVC002 19/19 A3015 RMK A01
KCVW 180240Z AUTO 17007KT M1/4SM FG OVC002 19/19 A3015 RMK A01
KCVW 180220Z AUTO 17007KT M1/4SM FG OVC002 19/19 A3014 RMK A01
KCVW 180200Z AUTO 17007KT M1/4SM FG OVC002 19/19 A3014 RMK A01
KCVW 180140Z AUTO 16008KT 1/4SM FG OVC002 19/19 A3014 RMK A01
KCVW 180120Z AUTO 15005KT 1/4SM FG OVC002 19/19 A3013 RMK A01
KCVW 180100Z AUTO 15006KT 1/2SM FG OVC002 20/20 A3013 RMK A01
KCVW 180040Z AUTO 16006KT 3/4SM BR OVC003 20/20 A3012 RMK A01
KCVW 180020Z AUTO 15006KT M1/4SM FG OVC002 19/19 A3012 RMK A01
KCVW 180000Z AUTO 16006KT 3SM BR OVC003 20/20 A3012 RMK A01
KCVW 172340Z AUTO 15006KT 3SM BR OVC003 20/20 A3012 RMK A01
KCVW 172320Z AUTO 15006KT 1SM BR OVC003 20/20 A3011 RMK A01
KCVW 172300Z AUTO 15006KT 2SM BR OVC003 20/20 A3011 RMK A01
KCVW 172240Z AUTO 15007KT 5SM BR BKN002 BKN011 20/20 A3011 RMK A01
KCVW 172220Z AUTO 15008KT 6SM BR SCT002 SCT011 BKN036 21/20 A3010 RMK A01
KCVW 172200Z AUTO 15008KT 6SM BR FEW002 SCT021 BKN035 20/20 A3010 RMK A01
KCVW 172140Z AUTO 15006KT 5SM BR SCT021 BKN026 OVC040 20/20 A3011 RMK A01
KCVW 172120Z AUTO 17007KT 5SM BR FEW027 FEW032 BKN039 21/20 A3010 RMK A01
KCVW 172100Z AUTO 16009KT 5SM BR BKN037 BKN065 BKN085 21/20 A3010 RMK A01
KCVW 172040Z AUTO 16006KT 6SM BR SCT034 BKN065 BKN085 21/20 A3011 RMK A01
KCVW 172020Z AUTO 17006KT 7SM SCT003 SCT020 BKN035 21/20 A3011 RMK A01
KCVW 172000Z AUTO 16007KT 8SM OVC003 21/20 A3011 RMK A01
KCVW 171940Z AUTO 15007KT 9SM OVC004 21/20 A3012 RMK A01
KCVW 171920Z AUTO 16007KT 8SM BKN004 OVC022 21/21 A3012 RMK A01
KCVW 171900Z AUTO 18005KT 7SM FEW006 SCT014 BKN035 21/21 A3013 RMK A01
KCVW 171840Z AUTO 19005KT 9SM FEW017 SCT023 SCT030 21/21 A3013 RMK A01
KCVW 171820Z AUTO 17005KT 9SM FEW024 FEW028 SCT036 21/21 A3014 RMK A01
KCVW 171800Z AUTO 18005KT 9SM FEW028 BKN036 21/21 A3015 RMK A01
KCVW 171740Z AUTO VRB05KT 9SM FEW015 SCT030 OVC037 20/20 A3016 RMK A01
KCVW 171720Z AUTO 19005KT 9SM SCT013 BKN019 BKN036 19/19 A3016 RMK A01
KCVW 171700Z AUTO 18004KT 10SM FEW003 SCT016 BKN024 19/19 A3016 RMK A01
KCVW 171640Z AUTO VRB04KT 8SM SCT003 BKN023 OVC034 19/19 A3015 RMK A01
KCVW 171620Z AUTO 20005KT 6SM BR BKN003 BKN030 OVC038 19/19 A3015 RMK A01
KCVW 171600Z AUTO 22005KT 1/4SM FG OVC003 19/19 A3014 RMK A01
KCVW 171540Z AUTO 23005KT M1/4SM FG OVC002 19/19 A3014 RMK A01
KCVW 171520Z AUTO 23004KT M1/4SM FG OVC002 19/19 A3014 RMK A01
KCVW 171500Z AUTO 22004KT M1/4SM FG OVC002 19/19 A3013 RMK A01
KCVW 171440Z AUTO 00000KT M1/4SM FG OVC002 18/18 A3012 RMK A01
KCVW 171420Z AUTO 19004KT M1/4SM FG OVC002 18/18 A3011 RMK A01
KCVW 171400Z AUTO 00000KT M1/4SM FG OVC002 18/18 A3010 RMK A01
KCVW 171340Z AUTO 00000KT M1/4SM FG OVC002 18/18 A3009 RMK A01
KCVW 171320Z AUTO 16004KT M1/4SM FG OVC002 18/18 A3007 RMK A01
KCVW 171300Z AUTO 15006KT M1/4SM FG OVC002 18/18 A3006 RMK A01
KCVW 171240Z AUTO 17005KT M1/4SM FG OVC002 18/18 A3006 RMK A01
KCVW 171220Z AUTO 17007KT M1/4SM FG OVC002 18/18 A3006 RMK A01
KCVW 171200Z AUTO 18009KT M1/4SM FG OVC002 18/18 A3005 RMK A01
KCVW 171140Z AUTO 17008KT M1/4SM FG OVC002 18/18 A3005 RMK A01
KCVW 171120Z AUTO 17009KT M1/4SM FG OVC002 18/18 A3005 RMK A01
KCVW 171100Z AUTO 18008KT M1/4SM FG OVC002 18/18 A3005 RMK A01
KCVW 171040Z AUTO 18006KT M1/4SM FG OVC002 18/18 A3005 RMK A01
KCVW 171020Z AUTO 17005KT M1/4SM FG OVC002 18/18 A3005 RMK A01 VIS M1/4V5
KCVW 171000Z AUTO 16005KT M1/4SM FG OVC002 18/18 A3006 RMK A01
KCVW 170940Z AUTO 17006KT M1/4SM FG OVC002 18/18 A3007 RMK A01
KCVW 170920Z AUTO 16005KT M1/4SM FG OVC002 18/18 A3007 RMK A01
KCVW 170900Z AUTO 16006KT 1/4SM FG OVC002 18/18 A3008 RMK A01
KCVW 170840Z AUTO 16006KT M1/4SM FG OVC002 18/18 A3008 RMK A01
KCVW 170820Z AUTO 17005KT M1/4SM FG OVC002 18/18 A3009 RMK A01
KCVW 170800Z AUTO 16006KT M1/4SM FG OVC002 17/17 A3009 RMK A01